Αναφορές METAR

 

LGKZ - Kozani (civ/Army, Greece
Distance from station: ΝΔ 41km
Ενημερώθηκε: 25/08/2019 00:50

 Ανεμος από Β
Ανεμος: Β 11 km/h
Θερμοκρασία: 20°C
Σημείο Δρόσου: 9°C
Υγρασία: 49%
Βαρόμετρο: 1020 hPa
2019/08/24 21:50 LGKZ 242150Z AUTO 35006KT //// // ////// 20/09 Q1020 RE//
LGTS - Thessaloniki/Mik, Greece
Distance from station: Α 64km
Ενημερώθηκε: 25/08/2019 00:50
Αίθριος
Αίθριος
 Ανεμος από Α
Ανεμος: Α 9 km/h
Θερμοκρασία: 25°C
Σημείο Δρόσου: 15°C
Υγρασία: 54%
Βαρόμετρο: 1017 hPa
Περίληψη: Αίθριος
Visibility: greater than 10 km
2019/08/24 21:50 LGTS 242150Z 09005KT CAVOK 25/15 Q1017 NOSIG
 
LGIO - Ioannina, Greece
Distance from station: ΝΔ 149km
Ενημερώθηκε: 24/08/2019 21:20
NOT Current
Few Clouds
Few Clouds
 Ανεμος από ΑΒΑ
Ανεμος: ΑΒΑ 11 km/h
Θερμοκρασία: 29°C
Σημείο Δρόσου: 13°C
Υγρασία: 37%
Βαρόμετρο: 1017 hPa
Clouds: Few Clouds
Visibility: 10 km
Cloud details: Few Clouds 1067 m
2019/08/24 18:20 LGIO 241820Z 07006KT 9999 FEW035 29/13 Q1017
LGBL - Nea Anchialos, Greece
Distance from station: ΝΝΑ 154km
Ενημερώθηκε: 25/08/2019 00:50
Αίθριος
Αίθριος
 Ανεμος από Δ
Ανεμος: Δ 9 km/h
Θερμοκρασία: 24°C
Σημείο Δρόσου: 14°C
Υγρασία: 54%
Βαρόμετρο: 1016 hPa
Περίληψη: Αίθριος
Visibility: greater than 10 km
2019/08/24 21:50 LGBL 242150Z 27005KT CAVOK 24/14 Q1016
 
LGSK - Skiathos Island, Greece
Distance from station: ΝΑ 185km
Ενημερώθηκε: 24/08/2019 21:20
NOT Current
Αίθριος
Αίθριος
 Ανεμος από calm
Ανεμος: Απνοια
Θερμοκρασία: 29°C
Heat Index: 31°C
Σημείο Δρόσου: 21°C
Υγρασία: 62%
Βαρόμετρο: 1015 hPa
Περίληψη: Αίθριος
Visibility: greater than 10 km
2019/08/24 18:20 LGSK 241820Z 00000KT CAVOK 29/21 Q1015
LGKV - Kavala/Chrisoupo, Greece
Distance from station: ΑΒΑ 208km
Ενημερώθηκε: 24/08/2019 23:20
NOT Current
Αίθριος
Αίθριος
 Ανεμος από ΑΒΑ
Ανεμος: ΑΒΑ 11 km/h
Θερμοκρασία: 27°C
Heat Index: 28°C
Σημείο Δρόσου: 19°C
Υγρασία: 62%
Βαρόμετρο: 1016 hPa
Περίληψη: Αίθριος
Visibility: greater than 10 km
2019/08/24 20:20 LGKV 242020Z 06006KT CAVOK 27/19 Q1016
 
LGPZ - Preveza/Aktion, Greece
Distance from station: ΝΔ 217km
Ενημερώθηκε: 25/08/2019 00:50
Αίθριος
Αίθριος
 Ανεμος από ΒΒΑ
Ανεμος: ΒΒΑ 13 km/h
Θερμοκρασία: 28°C
Heat Index: 29°C
Σημείο Δρόσου: 19°C
Υγρασία: 58%
Βαρόμετρο: 1014 hPa
Περίληψη: Αίθριος
Visibility: greater than 10 km
2019/08/24 21:50 LGPZ 242150Z 03007KT CAVOK 28/19 Q1014
LGKR - Ioannis Kapodist, Greece
Distance from station: ΔΝΔ 219km
Ενημερώθηκε: 25/08/2019 00:50
Αίθριος
Αίθριος
 Ανεμος από ΔΝΔ
Ανεμος: ΔΝΔ 4 km/h
Θερμοκρασία: 26°C
Σημείο Δρόσου: 19°C
Υγρασία: 65%
Βαρόμετρο: 1013 hPa
Περίληψη: Αίθριος
Visibility: greater than 10 km
2019/08/24 21:50 LGKR 242150Z 25002KT CAVOK 26/19 Q1013 NOSIG
 
LGSY - Skiros, Greece
Distance from station: ΝΑ 261km
Ενημερώθηκε: 25/08/2019 00:50

 Ανεμος από Β
Ανεμος: Β 19 km/h
Θερμοκρασία: 26°C
Σημείο Δρόσου: 20°C
Υγρασία: 70%
Βαρόμετρο: 1014 hPa
2019/08/24 21:50 LGSY 242150Z AUTO 01010KT //// // ////// 26/20 Q1014 RE//
LGLM - Limnos Island Ar, Greece
Distance from station: ΑΝΑ 266km
Ενημερώθηκε: 25/08/2019 00:50
Αίθριος
Αίθριος
 Ανεμος από ΒΒΑ
Ανεμος: ΒΒΑ 20 km/h
Θερμοκρασία: 25°C
Σημείο Δρόσου: 18°C
Υγρασία: 65%
Βαρόμετρο: 1014 hPa
Περίληψη: Αίθριος
Visibility: greater than 10 km
2019/08/24 21:50 LGLM 242150Z 03011KT CAVOK 25/18 Q1014
 
LGRX - Araxos (civ/Afb), Greece
Distance from station: ΝΝΔ 271km
Ενημερώθηκε: 25/08/2019 00:50
Αίθριος
Αίθριος
 Ανεμος από varies
Ανεμος: varies 6 km/h
Θερμοκρασία: 28°C
Heat Index: 28°C
Σημείο Δρόσου: 16°C
Υγρασία: 48%
Βαρόμετρο: 1013 hPa
Περίληψη: Αίθριος
Visibility: greater than 10 km
2019/08/24 21:50 LGRX 242150Z VRB03KT CAVOK 28/16 Q1013
LGEL - Elefsis (hel-Afb, Greece
Distance from station: ΝΝΑ 297km
Ενημερώθηκε: 25/08/2019 00:50
Αίθριος
Αίθριος
 Ανεμος από Β
Ανεμος: Β 11 km/h
Θερμοκρασία: 29°C
Heat Index: 29°C
Σημείο Δρόσου: 16°C
Υγρασία: 45%
Βαρόμετρο: 1013 hPa
Περίληψη: Αίθριος
Visibility: greater than 10 km
2019/08/24 21:50 LGEL 242150Z 35006KT CAVOK 29/16 Q1013
 
LGAD - Andravida (civ/A, Greece
Distance from station: ΝΝΔ 301km
Ενημερώθηκε: 25/08/2019 00:50
Αίθριος
Αίθριος
 Ανεμος από calm
Ανεμος: Απνοια
Θερμοκρασία: 23°C
Σημείο Δρόσου: 15°C
Υγρασία: 61%
Βαρόμετρο: 1013 hPa
Περίληψη: Αίθριος
Visibility: greater than 10 km
2019/08/24 21:50 LGAD 242150Z 00000KT CAVOK 23/15 Q1013
LGKF - Kefallinia, Greece
Distance from station: ΝΝΔ 305km
Ενημερώθηκε: 24/08/2019 23:50
NOT Current
Αίθριος
Αίθριος
 Ανεμος από varies
Ανεμος: varies 7 km/h
Θερμοκρασία: 30°C
Heat Index: 30°C
Σημείο Δρόσου: 16°C
Υγρασία: 43%
Βαρόμετρο: 1013 hPa
Περίληψη: Αίθριος
Visibility: greater than 10 km
2019/08/24 20:50 LGKF 242050Z VRB04KT CAVOK 30/16 Q1013